Latest Coastal Weather Observations for Truscott

IDD60701

Issued at 1:11 pm CST Wednesday 1 June 2016 (issued every 10 minutes, with the page automatically refreshed every 10 minutes)

About coastal observations | Map of coastal stations | Coastal observations for NT | Marine services | Other Formats
Station Details ID: 001020 Name: TRUSCOTT Lat: -14.09 Lon: 126.39 Height: 51.0 m
Data from the previous 72 hours. | See also: Recent months at Truscott
Date/Time
CST
Temp

°C
Wind Pressure Rain
since 9am
mm
Weather Cloud Vis
km
Sea
Height
m
Swell
Dir
 
Speed
knots
Gust
knots
hPa Trend Height
m
Period
s
Dir
01/01:00pm 33.1 ENE 8 13 1012.1 - 0.0 - - 10 - - - -
01/12:30pm 32.8 ENE 8 13 1012.7 - 0.0 - - 10 - - - -
01/12:00pm 32.6 E 9 12 1013.2 - 0.0 - - 10 - - - -
01/11:30am 32.5 SE 5 9 1013.5 - 0.0 - - 8 - - - -
01/11:00am 31.9 SE 6 11 1014.0 - 0.0 - - 10 - - - -
01/10:30am 31.0 SSE 6 8 1014.3 - 0.0 - - 10 - - - -
01/10:00am 30.4 SSE 5 7 1014.4 - 0.0 - - 10 - - - -
01/09:33am 29.4 SSE 4 7 1014.2 - 0.0 - - 1 - - - -
01/09:30am 29.2 SSE 4 7 1014.2 - 0.0 - - 10 - - - -
01/09:00am 28.1 SSE 4 5 1014.1 - 0.0 - - 10 - - - -
01/08:30am 26.8 SSE 3 4 1014.2 - 0.0 - - 10 - - - -
01/08:00am 25.0 SSE 3 4 1013.8 - 0.0 - - 10 - - - -
01/07:53am 24.5 SSE 4 5 1013.8 - 0.0 - - 10 - - - -
01/07:40am 23.9 S 3 4 1013.6 - 0.0 - - 5 - - - -
01/07:30am 24.5 S 4 5 1013.5 - 0.0 - - 10 - - - -
01/07:00am 25.6 SSW 4 5 1013.2 - 0.0 - - 10 - - - -
01/06:47am 25.5 SW 4 5 1013.1 - 0.0 - - 10 - - - -
01/06:30am 24.1 SW 3 4 1013.0 - 0.0 - - 6 - - - -
01/06:29am 24.0 SW 3 4 1013.0 - 0.0 - - 5 - - - -
01/06:00am 24.3 SSW 1 4 1012.9 - 0.0 - - 10 - - - -
01/05:30am 25.2 SW 3 4 1012.7 - 0.0 - - 10 - - - -
01/05:00am 25.9 SW 4 5 1012.7 - 0.0 - - 10 - - - -
01/04:30am 25.8 SW 4 5 1012.7 - 0.0 - - 10 - - - -
01/04:00am 25.9 SW 3 5 1012.7 - 0.0 - - 10 - - - -
01/03:30am 25.9 SSW 5 6 1012.8 - 0.0 - Partly cloudy 10 - - - -
01/03:00am 26.0 SSW 5 6 1012.9 - 0.0 - - 10 - - - -
01/02:30am 26.2 SSW 4 5 1013.2 - 0.0 - - 10 - - - -
01/02:00am 26.3 SSW 4 6 1013.5 - 0.0 - - 10 - - - -
01/01:30am 26.4 SW 4 6 1013.7 - 0.0 - - 10 - - - -
01/01:00am 26.5 SW 4 5 1013.7 - 0.0 - - 10 - - - -
01/12:30am 25.7 CALM 0 0 1013.8 - 0.0 - - 10 - - - -
01/12:00am 25.9 CALM 0 0 1013.8 - 0.0 - - 10 - - - -
 
Date/Time
CST
Temp

°C
Wind Pressure Rain
since 9am
mm
Weather Cloud Vis
km
Sea
Height
m
Swell
Dir
 
Speed
knots
Gust
knots
hPa Trend Height
m
Period
s
Dir
31/11:30pm 25.5 CALM 0 0 1014.1 - 0.0 - - 10 - - - -
31/11:00pm 25.9 CALM 0 0 1014.0 - 0.0 - - 10 - - - -
31/10:30pm 26.1 CALM 0 0 1014.0 - 0.0 - - 10 - - - -
31/10:00pm 26.5 CALM 0 0 1013.8 - 0.0 - - 10 - - - -
31/09:30pm 26.9 NE 3 4 1013.7 - 0.0 - - 10 - - - -
31/09:00pm 27.2 NE 2 4 1013.5 - 0.0 - - 10 - - - -
31/08:30pm 27.8 NNE 3 5 1013.2 - 0.0 - - 10 - - - -
31/08:00pm 28.1 NNE 4 5 1012.8 - 0.0 - - 10 - - - -
31/07:30pm 28.4 N 4 6 1012.3 - 0.0 - - 10 - - - -
31/07:00pm 28.7 NNE 4 6 1012.1 - 0.0 - - 6 - - - -
31/06:30pm 29.2 N 6 9 1011.7 - 0.0 - - 10 - - - -
31/06:00pm 29.9 N 7 11 1011.6 - 0.0 - - 10 - - - -
31/05:30pm 30.5 N 8 12 1011.2 - 0.0 - - 10 - - - -
31/05:00pm 31.1 N 9 14 1010.7 - 0.0 - - 10 - - - -
31/04:30pm 31.6 N 9 13 1010.5 - 0.0 - - 10 - - - -
31/04:00pm 32.1 NNW 8 13 1010.3 - 0.0 - - 10 - - - -
31/03:30pm 32.2 NNW 9 13 1010.3 - 0.0 - Partly cloudy 10 - - - -
31/03:00pm 32.8 NNW 7 11 1010.3 - 0.0 - Partly cloudy 10 - - - -
31/02:30pm 33.0 NE 6 11 1010.6 - 0.0 - Partly cloudy 10 - - - -
31/02:00pm 33.2 N 5 10 1011.1 - 0.0 - - 10 - - - -
31/01:30pm 32.7 N 7 9 1011.7 - 0.0 - Partly cloudy 10 - - - -
31/01:00pm 33.2 NNW 6 10 1012.1 - 0.0 - Partly cloudy 10 - - - -
31/12:30pm 31.9 NW 6 9 1012.6 - 0.0 - Partly cloudy 10 - - - -
31/12:00pm 32.4 E 2 5 1013.0 - 0.0 - - 10 - - - -
31/11:30am 32.2 E 2 4 1013.5 - 0.0 - - 10 - - - -
31/11:00am 31.9 WSW 2 4 1013.9 - 0.0 - - 10 - - - -
31/10:30am 30.6 S 4 6 1014.4 - 0.0 - - 10 - - - -
31/10:00am 30.1 S 5 7 1014.5 - 0.0 - - 10 - - - -
31/09:30am 29.1 S 6 8 1014.7 - 0.0 - - 10 - - - -
31/09:00am 28.2 S 5 7 1014.6 - 0.0 - - 10 - - - -
31/08:30am 27.0 S 5 6 1014.4 - 0.0 - - 10 - - - -
31/08:00am 26.0 S 5 6 1014.0 - 0.0 - - 10 - - - -
31/07:30am 25.7 SSW 7 9 1013.6 - 0.0 - - 10 - - - -
31/07:00am 25.4 SSW 5 7 1013.2 - 0.0 - - 10 - - - -
31/06:30am 25.5 SSW 5 7 1013.0 - 0.0 - - 10 - - - -
31/06:00am 25.2 S 5 7 1012.8 - 0.0 - - 10 - - - -
31/05:30am 24.1 S 5 6 1012.6 - 0.0 - - 10 - - - -
31/05:00am 23.9 CALM 0 3 1012.4 - 0.0 - - 10 - - - -
31/04:30am 24.0 S 3 4 1012.4 - 0.0 - - 10 - - - -
31/04:00am 25.4 SSW 5 6 1012.5 - 0.0 - - 10 - - - -
31/03:30am 24.7 SSW 2 3 1012.5 - 0.0 - - 10 - - - -
31/03:00am 24.5 CALM 0 0 1012.6 - 0.0 - - 9 - - - -
31/02:30am 24.3 CALM 0 0 1012.7 - 0.0 - - 10 - - - -
31/02:01am 24.6 CALM 0 0 1012.9 - 0.0 - - 10 - - - -
31/02:00am 24.6 CALM 0 0 1012.9 - 0.0 - - 10 - - - -
31/01:48am 24.7 CALM 0 0 1012.9 - 0.0 - - 5 - - - -
31/01:30am 24.8 CALM 0 0 1013.1 - 0.0 - - 7 - - - -
31/01:00am 24.9 CALM 0 0 1013.1 - 0.0 - - 10 - - - -
31/12:30am 24.9 CALM 0 0 1013.3 - 0.0 - - 9 - - - -
31/12:00am 25.0 CALM 0 0 1013.4 - 0.0 - - 10 - - - -
 
Date/Time
CST
Temp

°C
Wind Pressure Rain
since 9am
mm
Weather Cloud Vis
km
Sea
Height
m
Swell
Dir
 
Speed
knots
Gust
knots
hPa Trend Height
m
Period
s
Dir
30/11:30pm 25.4 CALM 0 0 1013.5 - 0.0 - - 10 - - - -
30/11:00pm 25.6 CALM 0 0 1013.6 - 0.0 - - 10 - - - -
30/10:30pm 25.6 CALM 0 0 1013.6 - 0.0 - - 9 - - - -
30/10:00pm 25.8 CALM 0 0 1013.5 - 0.0 - - 10 - - - -
30/09:30pm 26.2 CALM 0 0 1013.3 - 0.0 - - 10 - - - -
30/09:00pm 26.3 CALM 0 0 1013.0 - 0.0 - - 10 - - - -
30/08:30pm 27.0 CALM 0 0 1012.7 - 0.0 - - 10 - - - -
30/08:00pm 28.0 N 1 4 1012.3 - 0.0 - - 10 - - - -
30/07:30pm 28.4 N 4 6 1011.9 - 0.0 - - 10 - - - -
30/07:00pm 28.8 N 4 5 1011.7 - 0.0 - - 10 - - - -
30/06:30pm 29.7 NNW 3 5 1011.4 - 0.0 - - 10 - - - -
30/06:00pm 30.6 N 6 8 1010.9 - 0.0 - - 10 - - - -
30/05:30pm 31.0 NNW 6 8 1010.6 - 0.0 - - 10 - - - -
30/05:00pm 31.4 NNW 6 9 1010.3 - 0.0 - - 10 - - - -
30/04:30pm 31.3 NNW 7 10 1010.1 - 0.0 - - 10 - - - -
30/04:00pm 32.0 NNW 7 11 1010.1 - 0.0 - - 10 - - - -
30/03:30pm 32.0 NNW 7 11 1010.2 - 0.0 - - 10 - - - -
30/03:00pm 32.8 NNW 6 10 1010.2 - 0.0 - - 10 - - - -
30/02:30pm 32.2 NNW 7 11 1010.5 - 0.0 - - 10 - - - -
30/02:00pm 32.3 NW 7 13 1010.9 - 0.0 - Partly cloudy 10 - - - -
30/01:30pm 32.6 W 7 11 1011.4 - 0.0 - Partly cloudy 10 - - - -
30/01:00pm 31.8 W 5 8 1011.9 - 0.0 - Partly cloudy 10 - - - -
30/12:30pm 31.6 W 5 9 1012.3 - 0.0 - - 10 - - - -
30/12:00pm 31.3 WSW 6 9 1012.6 - 0.0 - - 10 - - - -
30/11:30am 30.8 W 6 10 1012.9 - 0.0 - Partly cloudy 10 - - - -
30/11:00am 30.1 WSW 6 8 1013.2 - 0.0 - Partly cloudy 10 - - - -
30/10:30am 30.3 W 5 8 1013.5 - 0.0 - Mostly cloudy 10 - - - -
30/10:00am 29.4 NW 3 6 1013.7 - 0.0 - Partly cloudy 10 - - - -
30/09:30am 29.3 NW 3 6 1013.6 - 0.0 - - 10 - - - -
30/09:00am 28.5 CALM 0 0 1013.4 - 0.0 - - 10 - - - -
30/08:30am 26.9 CALM 0 0 1013.1 - 0.0 - - 10 - - - -
30/08:00am 25.1 CALM 0 0 1012.8 - 0.0 - - 10 - - - -
30/07:30am 24.0 CALM 0 0 1012.5 - 0.0 - - 10 - - - -
30/07:00am 24.3 CALM 0 0 1012.2 - 0.0 - - 10 - - - -
30/06:30am 24.5 CALM 0 0 1011.8 - 0.0 - - 9 - - - -
30/06:12am 24.5 CALM 0 0 1011.7 - 0.0 - - 8 - - - -
30/06:00am 24.5 CALM 0 0 1011.6 - 0.0 - - 5 - - - -
30/05:58am 24.5 CALM 0 0 1011.6 - 0.0 - - 5 - - - -
30/05:30am 25.6 SW 5 6 1011.5 - 0.0 - - 10 - - - -
30/05:00am 24.8 SW 3 5 1011.4 - 0.0 - - 9 - - - -
30/04:30am 24.3 CALM 0 0 1011.4 - 0.0 - - 10 - - - -
30/04:00am 24.5 CALM 0 0 1011.6 - 0.0 - - 10 - - - -
30/03:30am 24.2 CALM 0 0 1011.5 - 0.0 - - 10 - - - -
30/03:00am 24.2 CALM 0 0 1011.6 - 0.0 - - 10 - - - -
30/02:30am 24.4 CALM 0 0 1011.6 - 0.0 - - 10 - - - -
30/02:00am 24.5 CALM 0 0 1011.7 - 0.0 - - 10 - - - -
30/01:30am 24.8 CALM 0 0 1011.8 - 0.0 - - 10 - - - -
30/01:00am 24.9 CALM 0 0 1011.9 - 0.0 - - 9 - - - -
30/12:30am 25.2 CALM 0 0 1011.9 - 0.0 - - 10 - - - -
30/12:00am 25.2 CALM 0 0 1012.0 - 0.0 - - 10 - - - -
 
Date/Time
CST
Temp

°C
Wind Pressure Rain
since 9am
mm
Weather Cloud Vis
km
Sea
Height
m
Swell
Dir
 
Speed
knots
Gust
knots
hPa Trend Height
m
Period
s
Dir
29/11:30pm 25.3 CALM 0 0 1012.1 - 0.0 - - 10 - - - -
29/11:00pm 26.3 NW 1 3 1012.4 - 0.0 - - 8 - - - -
29/10:30pm 26.7 NNW 3 4 1012.4 - 0.0 - - 10 - - - -
29/10:00pm 27.2 NNW 3 4 1012.4 - 0.0 - - 10 - - - -
29/09:30pm 27.7 NNW 3 5 1012.2 - 0.0 - - 10 - - - -
29/09:00pm 27.9 NNW 4 6 1012.1 - 0.0 - - 10 - - - -
29/08:30pm 28.1 NNW 4 6 1011.9 - 0.0 - - 10 - - - -
29/08:00pm 28.4 NW 4 6 1011.6 - 0.0 - - 7 - - - -
29/07:30pm 28.6 NNW 6 9 1011.4 - 0.0 - - 10 - - - -
29/07:00pm 28.8 NNW 6 9 1011.1 - 0.0 - - 10 - - - -
29/06:30pm 29.3 NNW 6 8 1010.7 - 0.0 - - 10 - - - -
29/06:00pm 30.1 NNW 7 9 1010.3 - 0.0 - - 10 - - - -
29/05:30pm 31.0 NNW 7 11 1009.8 - 0.0 - - 10 - - - -
29/05:00pm 31.3 NNW 8 11 1009.6 - 0.0 - - 10 - - - -
29/04:30pm 32.1 NNW 7 11 1009.5 - 0.0 - - 10 - - - -
29/04:00pm 31.8 NNW 8 12 1009.5 - 0.0 - - 10 - - - -
29/03:30pm 32.7 NNW 7 11 1009.5 - 0.0 - - 10 - - - -
29/03:00pm 33.0 NW 6 10 1009.8 - 0.0 - - 10 - - - -

Other Formats:

Comma delimited format used in spreadsheet applications
http://www.bom.gov.au/fwo/IDD60701/IDD60701.95101.axf

JavaScript Object Notation format (JSON) in row-major order
http://www.bom.gov.au/fwo/IDD60701/IDD60701.95101.json